Time,TemperatureF,DewpointF,PressureIn,WindDirection,WindDirectionDegrees,WindSpeedMPH,WindSpeedGustMPH,Humidity,HourlyPrecipIn,Conditions,Clouds,dailyrainin,SoftwareType,DateUTC
2013-05-04 00:03:00,61.5,60.9,29.80,East,90,8.3,-999.0,98,-99.99,,,0.00,Acu-Link.com,2013-05-04 05:03:00,
2013-05-04 00:19:00,61.3,60.7,29.80,South,180,6.3,-999.0,98,-99.99,,,0.00,Acu-Link.com,2013-05-04 05:19:00,
2013-05-04 00:34:00,61.5,60.9,29.80,ESE,112,4.7,-999.0,98,-99.99,,,0.00,Acu-Link.com,2013-05-04 05:34:00,
2013-05-04 00:49:00,61.5,60.9,29.80,ESE,112,4.7,-999.0,98,-99.99,,,0.00,Acu-Link.com,2013-05-04 05:49:00,
2013-05-04 01:04:00,61.3,60.7,29.80,SE,135,4.2,-999.0,98,-99.99,,,0.00,Acu-Link.com,2013-05-04 06:04:00,
2013-05-04 01:19:00,61.3,60.7,29.79,SE,135,6.8,-999.0,98,-99.99,,,0.00,Acu-Link.com,2013-05-04 06:19:00,
2013-05-04 01:34:00,61.2,60.6,29.79,SSE,157,5.8,-999.0,98,-99.99,,,0.00,Acu-Link.com,2013-05-04 06:34:00,
2013-05-04 01:49:00,61.0,60.4,29.78,SSE,157,4.7,-999.0,98,-99.99,,,0.00,Acu-Link.com,2013-05-04 06:49:00,
2013-05-04 02:04:00,61.0,60.4,29.78,SE,135,6.3,-999.0,98,-99.99,,,0.00,Acu-Link.com,2013-05-04 07:04:00,
2013-05-04 02:19:00,61.0,60.4,29.78,SE,135,4.7,-999.0,98,-99.99,,,0.00,Acu-Link.com,2013-05-04 07:19:00,
2013-05-04 02:35:00,61.2,60.6,29.78,ESE,112,4.2,-999.0,98,-99.99,,,0.00,Acu-Link.com,2013-05-04 07:35:00,
2013-05-04 02:50:00,61.2,60.6,29.78,SE,135,5.8,-999.0,98,-99.99,,,0.00,Acu-Link.com,2013-05-04 07:50:00,
2013-05-04 03:05:00,61.0,60.4,29.78,SE,135,3.7,-999.0,98,-99.99,,,0.00,Acu-Link.com,2013-05-04 08:05:00,
2013-05-04 03:20:00,61.0,60.4,29.78,ESE,112,8.9,-999.0,98,-99.99,,,0.00,Acu-Link.com,2013-05-04 08:20:00,
2013-05-04 03:35:00,61.2,60.6,29.78,SSE,157,7.8,-999.0,98,-99.99,,,0.00,Acu-Link.com,2013-05-04 08:35:00,
2013-05-04 03:51:00,61.2,60.6,29.78,SE,135,5.3,-999.0,98,-99.99,,,0.00,Acu-Link.com,2013-05-04 08:51:00,
2013-05-04 04:06:00,61.2,60.6,29.78,ESE,112,4.2,-999.0,98,-99.99,,,0.00,Acu-Link.com,2013-05-04 09:06:00,
2013-05-04 04:21:00,61.0,60.4,29.77,SE,135,6.3,-999.0,98,-99.99,,,0.00,Acu-Link.com,2013-05-04 09:21:00,
2013-05-04 04:36:00,60.8,60.2,29.77,SE,135,4.7,-999.0,98,-99.99,,,0.00,Acu-Link.com,2013-05-04 09:36:00,
2013-05-04 04:51:00,60.8,60.2,29.78,SE,135,5.8,-999.0,98,-99.99,,,0.00,Acu-Link.com,2013-05-04 09:51:00,
2013-05-04 05:06:00,60.8,60.2,29.78,SE,135,5.3,-999.0,98,-99.99,,,0.00,Acu-Link.com,2013-05-04 10:06:00,
2013-05-04 05:21:00,60.8,60.2,29.78,SSE,157,6.3,-999.0,98,-99.99,,,0.00,Acu-Link.com,2013-05-04 10:21:00,
2013-05-04 05:36:00,60.6,60.0,29.78,ESE,112,4.7,-999.0,98,-99.99,,,0.00,Acu-Link.com,2013-05-04 10:36:00,
2013-05-04 05:51:00,60.4,59.8,29.78,ESE,112,6.8,-999.0,98,-99.99,,,0.00,Acu-Link.com,2013-05-04 10:51:00,
2013-05-04 06:06:00,60.4,59.8,29.79,South,180,3.7,-999.0,98,-99.99,,,0.00,Acu-Link.com,2013-05-04 11:06:00,
2013-05-04 06:22:00,60.3,59.7,29.79,SE,135,2.2,-999.0,98,-99.99,,,0.00,Acu-Link.com,2013-05-04 11:22:00,
2013-05-04 06:37:00,60.3,59.7,29.80,SE,135,8.3,-999.0,98,-99.99,,,0.00,Acu-Link.com,2013-05-04 11:37:00,
2013-05-04 06:52:00,60.4,59.8,29.80,SSE,157,6.8,-999.0,98,-99.99,,,0.00,Acu-Link.com,2013-05-04 11:52:00,
2013-05-04 07:07:00,60.6,60.0,29.80,SE,135,5.8,-999.0,98,-99.99,,,0.00,Acu-Link.com,2013-05-04 12:07:00,
2013-05-04 07:22:00,61.2,60.6,29.80,SSE,157,6.3,-999.0,98,-99.99,,,0.00,Acu-Link.com,2013-05-04 12:22:00,
2013-05-04 07:37:00,62.1,61.5,29.80,ESE,112,8.3,-999.0,98,-99.99,,,0.00,Acu-Link.com,2013-05-04 12:37:00,
2013-05-04 07:52:00,62.6,62.0,29.81,South,180,9.9,-999.0,98,-99.99,,,0.00,Acu-Link.com,2013-05-04 12:52:00,
2013-05-04 08:08:00,62.6,62.0,29.81,SSE,157,9.9,-999.0,98,-99.99,,,0.00,Acu-Link.com,2013-05-04 13:08:00,
2013-05-04 08:23:00,62.4,61.8,29.82,SSE,157,7.8,-999.0,98,-99.99,,,0.00,Acu-Link.com,2013-05-04 13:23:00,
2013-05-04 08:38:00,62.4,61.8,29.82,SSE,157,9.9,-999.0,98,-99.99,,,0.00,Acu-Link.com,2013-05-04 13:38:00,
2013-05-04 08:53:00,62.1,61.5,29.83,ENE,67,6.8,-999.0,98,-99.99,,,0.00,Acu-Link.com,2013-05-04 13:53:00,
2013-05-04 09:08:00,63.1,62.5,29.83,South,180,5.3,-999.0,98,-99.99,,,0.00,Acu-Link.com,2013-05-04 14:08:00,
2013-05-04 09:23:00,64.9,64.3,29.83,ESE,112,4.7,-999.0,98,-99.99,,,0.00,Acu-Link.com,2013-05-04 14:23:00,
2013-05-04 09:41:00,64.2,63.6,29.84,ESE,112,11.9,-999.0,98,-99.99,,,0.00,Acu-Link.com,2013-05-04 14:41:00,
2013-05-04 09:56:00,64.9,64.3,29.84,South,180,5.8,-999.0,98,-99.99,,,0.00,Acu-Link.com,2013-05-04 14:56:00,
2013-05-04 10:11:00,64.4,63.8,29.84,SSE,157,7.3,-999.0,98,-99.99,,,0.00,Acu-Link.com,2013-05-04 15:11:00,
2013-05-04 10:26:00,63.7,63.1,29.84,SE,135,7.3,-999.0,98,-99.99,,,0.00,Acu-Link.com,2013-05-04 15:26:00,
2013-05-04 10:42:00,64.2,63.6,29.84,ESE,112,5.3,-999.0,98,-99.99,,,0.00,Acu-Link.com,2013-05-04 15:42:00,
2013-05-04 10:57:00,64.2,63.6,29.84,SSW,202,3.7,-999.0,98,-99.99,,,0.00,Acu-Link.com,2013-05-04 15:57:00,
2013-05-04 11:12:00,63.7,63.1,29.83,ESE,112,8.9,-999.0,98,-99.99,,,0.00,Acu-Link.com,2013-05-04 16:12:00,
2013-05-04 11:27:00,61.3,60.7,29.84,South,180,3.7,-999.0,98,-99.99,,,0.00,Acu-Link.com,2013-05-04 16:27:00,
2013-05-04 11:42:00,59.5,58.9,29.85,SSE,157,6.8,-999.0,98,-99.99,,,0.00,Acu-Link.com,2013-05-04 16:42:00,
2013-05-04 11:57:00,58.8,58.2,29.85,SSW,202,4.7,-999.0,98,-99.99,,,0.00,Acu-Link.com,2013-05-04 16:57:00,
2013-05-04 12:13:00,58.3,57.7,29.86,West,270,4.7,-999.0,98,-99.99,,,0.00,Acu-Link.com,2013-05-04 17:13:00,
2013-05-04 12:28:00,58.1,57.5,29.86,South,180,3.2,-999.0,98,-99.99,,,0.00,Acu-Link.com,2013-05-04 17:28:00,
2013-05-04 12:43:00,58.5,57.9,29.85,SSE,157,4.2,-999.0,98,-99.99,,,0.00,Acu-Link.com,2013-05-04 17:43:00,
2013-05-04 12:58:00,59.0,58.4,29.85,ESE,112,8.3,-999.0,98,-99.99,,,0.00,Acu-Link.com,2013-05-04 17:58:00,
2013-05-04 13:13:00,58.5,57.9,29.86,SSE,157,7.3,-999.0,98,-99.99,,,0.00,Acu-Link.com,2013-05-04 18:13:00,
2013-05-04 13:28:00,58.3,57.7,29.85,SW,225,4.2,-999.0,98,-99.99,,,0.00,Acu-Link.com,2013-05-04 18:28:00,
2013-05-04 13:44:00,58.6,58.0,29.86,WSW,247,6.3,-999.0,98,-99.99,,,0.00,Acu-Link.com,2013-05-04 18:44:00,
2013-05-04 13:59:00,58.6,58.0,29.87,ESE,112,3.7,-999.0,98,-99.99,,,0.00,Acu-Link.com,2013-05-04 18:59:00,
2013-05-04 14:14:00,59.4,58.8,29.86,ESE,112,4.7,-999.0,98,-99.99,,,0.00,Acu-Link.com,2013-05-04 19:14:00,
2013-05-04 14:30:00,59.0,58.4,29.87,SE,135,3.2,-999.0,98,-99.99,,,0.00,Acu-Link.com,2013-05-04 19:30:00,
2013-05-04 14:45:00,59.0,58.4,29.87,South,180,7.8,-999.0,98,-99.99,,,0.00,Acu-Link.com,2013-05-04 19:45:00,
2013-05-04 15:06:00,58.6,58.0,29.87,SSE,157,6.3,-999.0,98,-99.99,,,0.00,Acu-Link.com,2013-05-04 20:06:00,
2013-05-04 15:21:00,59.4,58.8,29.87,SSE,157,5.3,-999.0,98,-99.99,,,0.00,Acu-Link.com,2013-05-04 20:21:00,
2013-05-04 15:36:00,59.2,58.6,29.87,SSE,157,7.3,-999.0,98,-99.99,,,0.00,Acu-Link.com,2013-05-04 20:36:00,
2013-05-04 15:51:00,59.2,58.6,29.87,ESE,112,6.8,-999.0,98,-99.99,,,0.00,Acu-Link.com,2013-05-04 20:51:00,
2013-05-04 16:08:00,59.5,58.9,29.86,ESE,112,4.7,-999.0,98,-99.99,,,0.00,Acu-Link.com,2013-05-04 21:08:00,
2013-05-04 16:27:00,59.9,59.3,29.86,ESE,112,6.3,-999.0,98,-99.99,,,0.00,Acu-Link.com,2013-05-04 21:27:00,
2013-05-04 16:42:00,59.4,58.8,29.86,SE,135,6.8,-999.0,98,-99.99,,,0.00,Acu-Link.com,2013-05-04 21:42:00,
2013-05-04 17:04:00,59.4,58.8,29.87,WSW,247,7.8,-999.0,98,-99.99,,,0.00,Acu-Link.com,2013-05-04 22:04:00,
2013-05-04 17:59:00,59.4,58.8,29.88,SE,135,2.7,-999.0,98,-99.99,,,0.00,Acu-Link.com,2013-05-04 22:59:00,
2013-05-04 18:15:00,59.4,58.8,29.89,SSE,157,5.3,-999.0,98,-99.99,,,0.00,Acu-Link.com,2013-05-04 23:15:00,
2013-05-04 18:30:00,59.4,58.8,29.89,SE,135,5.3,-999.0,98,-99.99,,,0.00,Acu-Link.com,2013-05-04 23:30:00,
2013-05-04 19:10:00,59.4,58.8,29.90,East,90,3.7,-999.0,98,-99.99,,,0.00,Acu-Link.com,2013-05-05 00:10:00,
2013-05-04 19:27:00,57.2,56.6,29.91,ESE,112,9.4,-999.0,98,-99.99,,,0.00,Acu-Link.com,2013-05-05 00:27:00,
2013-05-04 19:42:00,57.0,56.4,29.91,SE,135,3.7,-999.0,98,-99.99,,,0.00,Acu-Link.com,2013-05-05 00:42:00,
2013-05-04 20:00:00,57.0,56.4,29.91,ESE,112,0.0,-999.0,98,-99.99,,,0.00,Acu-Link.com,2013-05-05 01:00:00,
2013-05-04 20:17:00,56.8,56.2,29.91,SE,135,3.2,-999.0,98,-99.99,,,0.00,Acu-Link.com,2013-05-05 01:17:00,
2013-05-04 20:32:00,57.2,56.6,29.91,ESE,112,0.0,-999.0,98,-99.99,,,0.00,Acu-Link.com,2013-05-05 01:32:00,
2013-05-04 20:47:00,57.2,56.6,29.92,ESE,112,1.7,-999.0,98,-99.99,,,0.00,Acu-Link.com,2013-05-05 01:47:00,
2013-05-04 21:02:00,56.7,56.1,29.91,ESE,112,0.0,-999.0,98,-99.99,,,0.00,Acu-Link.com,2013-05-05 02:02:00,
2013-05-04 21:17:00,56.7,56.1,29.91,West,270,0.0,-999.0,98,-99.99,,,0.00,Acu-Link.com,2013-05-05 02:17:00,
2013-05-04 21:33:00,56.7,56.1,29.91,West,270,0.0,-999.0,98,-99.99,,,0.00,Acu-Link.com,2013-05-05 02:33:00,
2013-05-04 21:48:00,57.0,56.4,29.91,NW,315,0.0,-999.0,98,-99.99,,,0.00,Acu-Link.com,2013-05-05 02:48:00,
2013-05-04 22:03:00,57.0,56.4,29.90,West,270,0.0,-999.0,98,-99.99,,,0.00,Acu-Link.com,2013-05-05 03:03:00,
2013-05-04 22:18:00,56.7,56.1,29.91,West,270,0.0,-999.0,98,-99.99,,,0.00,Acu-Link.com,2013-05-05 03:18:00,
2013-05-04 22:33:00,57.2,56.6,29.92,South,180,0.0,-999.0,98,-99.99,,,0.00,Acu-Link.com,2013-05-05 03:33:00,
2013-05-04 22:48:00,57.7,57.1,29.92,SSW,202,0.0,-999.0,98,-99.99,,,0.00,Acu-Link.com,2013-05-05 03:48:00,
2013-05-04 23:03:00,57.6,57.0,29.92,SSW,202,0.0,-999.0,98,-99.99,,,0.00,Acu-Link.com,2013-05-05 04:03:00,
2013-05-04 23:18:00,57.2,56.6,29.92,SSW,202,0.0,-999.0,98,-99.99,,,0.00,Acu-Link.com,2013-05-05 04:18:00,
2013-05-04 23:33:00,57.0,56.4,29.91,West,270,0.0,-999.0,98,-99.99,,,0.00,Acu-Link.com,2013-05-05 04:33:00,
2013-05-04 23:48:00,57.2,56.6,29.93,ESE,112,1.1,-999.0,98,-99.99,,,0.00,Acu-Link.com,2013-05-05 04:48:00,